Time;durP1;ratioP1;P1;durP2;ratioP2;P2;SDS_P1;SDS_P2;PMS_P1;PMS_P2;Temp;Humidity;BMP_temperature;BMP_pressure;BME280_temperature;BME280_humidity;BME280_pressure;Samples;Min_cycle;Max_cycle;Signal;HPM_P1;HPM_P2
2020/12/04 00:00:43;;;;;;;21.87;15.53;;;;;;;;;;4958991;29;20188;-75
2020/12/04 00:03:09;;;;;;;21.73;16.10;;;;;;;;;;4958544;28;20252;-72
2020/12/04 00:05:41;;;;;;;23.63;15.47;;;;;;;;;;4957202;28;20296;-75
2020/12/04 00:08:08;;;;;;;24.37;16.50;;;;;;;;;;4958511;28;20252;-74
2020/12/04 00:10:34;;;;;;;25.37;16.50;;;;;;;;;;4958538;28;20177;-74
2020/12/04 00:13:00;;;;;;;25.73;16.83;;;;;;;;;;4957150;29;20220;-75
2020/12/04 00:15:26;;;;;;;23.30;16.67;;;;;;;;;;4958372;28;20611;-74
2020/12/04 00:17:52;;;;;;;26.40;16.47;;;;;;;;;;4958302;28;20204;-74
2020/12/04 00:20:18;;;;;;;25.27;17.63;;;;;;;;;;4958574;28;20591;-74
2020/12/04 00:22:45;;;;;;;22.77;15.87;;;;;;;;;;4958331;28;20193;-73
2020/12/04 00:25:11;;;;;;;25.27;16.33;;;;;;;;;;4958203;28;20208;-74
2020/12/04 00:27:37;;;;;;;22.47;16.13;;;;;;;;;;4956908;29;20185;-74
2020/12/04 00:30:03;;;;;;;22.93;16.63;;;;;;;;;;4956885;29;20181;-75
2020/12/04 00:32:29;;;;;;;22.30;16.07;;;;;;;;;;4958165;28;20182;-73
2020/12/04 00:34:56;;;;;;;25.07;16.40;;;;;;;;;;4957994;28;20228;-74
2020/12/04 00:37:22;;;;;;;22.13;15.80;;;;;;;;;;4958102;28;20244;-74
2020/12/04 00:39:48;;;;;;;23.80;16.43;;;;;;;;;;4956765;29;20557;-74
2020/12/04 00:42:15;;;;;;;21.97;15.27;;;;;;;;;;4957854;28;20283;-74
2020/12/04 00:44:41;;;;;;;22.80;16.13;;;;;;;;;;4957749;28;20212;-74
2020/12/04 00:47:07;;;;;;;23.53;16.03;;;;;;;;;;4957865;28;20173;-74
2020/12/04 00:49:33;;;;;;;23.50;16.50;;;;;;;;;;4958025;28;20201;-75
2020/12/04 00:52:00;;;;;;;21.87;15.63;;;;;;;;;;4956584;29;20185;-75
2020/12/04 00:54:26;;;;;;;20.20;15.70;;;;;;;;;;4957597;28;20197;-74
2020/12/04 00:56:52;;;;;;;25.13;16.07;;;;;;;;;;4957669;29;20706;-74
2020/12/04 00:59:18;;;;;;;22.00;16.03;;;;;;;;;;4957897;28;20240;-74
2020/12/04 01:01:44;;;;;;;22.00;15.13;;;;;;;;;;4957896;29;20272;-73
2020/12/04 01:04:10;;;;;;;21.07;15.33;;;;;;;;;;4957502;28;20237;-74
2020/12/04 01:06:37;;;;;;;22.17;15.63;;;;;;;;;;4957588;28;20646;-75
2020/12/04 01:09:06;;;;;;;23.93;16.07;;;;;;;;;;4957456;28;20573;-73
2020/12/04 01:11:32;;;;;;;25.40;17.23;;;;;;;;;;4957699;28;20208;-74
2020/12/04 01:13:58;;;;;;;22.83;15.90;;;;;;;;;;4956350;28;20181;-74
2020/12/04 01:16:25;;;;;;;21.37;16.00;;;;;;;;;;4957562;28;20192;-75
2020/12/04 01:18:51;;;;;;;24.63;15.47;;;;;;;;;;4957666;29;20255;-74
2020/12/04 01:21:18;;;;;;;22.80;16.13;;;;;;;;;;4957264;28;20185;-75
2020/12/04 01:23:44;;;;;;;22.27;15.73;;;;;;;;;;4957101;28;20772;-74
2020/12/04 01:26:10;;;;;;;22.47;16.77;;;;;;;;;;4957068;28;20236;-75
2020/12/04 01:28:37;;;;;;;23.83;16.60;;;;;;;;;;4957368;28;20205;-74
2020/12/04 01:31:03;;;;;;;22.93;16.27;;;;;;;;;;4957230;28;20260;-74
2020/12/04 01:33:29;;;;;;;22.43;15.93;;;;;;;;;;4957050;28;20269;-74
2020/12/04 01:35:56;;;;;;;23.70;16.73;;;;;;;;;;4956777;28;20545;-74
2020/12/04 01:38:22;;;;;;;22.47;16.23;;;;;;;;;;4956658;28;20200;-75
2020/12/04 01:40:48;;;;;;;22.70;16.40;;;;;;;;;;4956834;28;20215;-73
2020/12/04 01:43:14;;;;;;;22.57;15.90;;;;;;;;;;4955860;29;20181;-74
2020/12/04 01:45:40;;;;;;;22.13;16.43;;;;;;;;;;4956697;28;20217;-75
2020/12/04 01:48:06;;;;;;;22.83;15.70;;;;;;;;;;4956972;28;20205;-73
2020/12/04 01:50:32;;;;;;;24.27;15.87;;;;;;;;;;4956757;28;20181;-73
2020/12/04 01:52:59;;;;;;;21.50;15.40;;;;;;;;;;4955700;29;20185;-75
2020/12/04 01:55:25;;;;;;;23.83;16.63;;;;;;;;;;4956466;28;20204;-75
2020/12/04 01:57:53;;;;;;;21.03;16.03;;;;;;;;;;4956565;29;20181;-73
2020/12/04 02:00:19;;;;;;;21.23;16.17;;;;;;;;;;4954809;28;20184;-74
2020/12/04 02:02:46;;;;;;;25.27;17.00;;;;;;;;;;4956441;29;20188;-74
2020/12/04 02:05:12;;;;;;;22.23;16.30;;;;;;;;;;4956310;28;20207;-74
2020/12/04 02:07:41;;;;;;;27.23;17.47;;;;;;;;;;4956274;29;20683;-74
2020/12/04 02:10:10;;;;;;;23.93;17.27;;;;;;;;;;4955125;29;20223;-74
2020/12/04 02:12:36;;;;;;;23.87;16.37;;;;;;;;;;4956222;29;20199;-74
2020/12/04 02:15:03;;;;;;;24.10;17.00;;;;;;;;;;4956216;28;20205;-74
2020/12/04 02:17:35;;;;;;;24.53;17.40;;;;;;;;;;4956329;28;20591;-74
2020/12/04 02:20:01;;;;;;;21.27;16.20;;;;;;;;;;4955035;29;20177;-74
2020/12/04 02:22:35;;;;;;;25.60;18.10;;;;;;;;;;4956148;29;20667;-75
2020/12/04 02:25:01;;;;;;;26.57;17.93;;;;;;;;;;4955962;28;20545;-74
2020/12/04 02:27:27;;;;;;;26.23;17.27;;;;;;;;;;4955661;29;20174;-75
2020/12/04 02:29:53;;;;;;;21.67;16.00;;;;;;;;;;4959700;29;20624;-73
2020/12/04 02:32:19;;;;;;;25.13;17.50;;;;;;;;;;4961613;28;20181;-74
2020/12/04 02:34:45;;;;;;;26.73;18.57;;;;;;;;;;4957573;28;20287;-75
2020/12/04 02:37:12;;;;;;;26.30;17.60;;;;;;;;;;4956317;28;20181;-74
2020/12/04 02:39:39;;;;;;;23.73;16.53;;;;;;;;;;4955839;28;20192;-75
2020/12/04 02:42:05;;;;;;;23.07;16.50;;;;;;;;;;4955839;28;20177;-74
2020/12/04 02:44:31;;;;;;;25.47;17.03;;;;;;;;;;4955872;28;20225;-75
2020/12/04 02:46:57;;;;;;;23.67;17.10;;;;;;;;;;4955723;28;20187;-75
2020/12/04 02:49:23;;;;;;;25.90;17.73;;;;;;;;;;4955635;28;20275;-73
2020/12/04 02:51:49;;;;;;;23.37;16.67;;;;;;;;;;4955627;28;20180;-74
2020/12/04 02:54:19;;;;;;;23.93;17.27;;;;;;;;;;4954934;28;20203;-74
2020/12/04 02:56:45;;;;;;;24.47;17.40;;;;;;;;;;4954131;29;20185;-75
2020/12/04 02:59:11;;;;;;;28.63;18.37;;;;;;;;;;4955699;28;20181;-75
2020/12/04 03:01:38;;;;;;;24.97;17.43;;;;;;;;;;4955010;28;20236;-74
2020/12/04 03:04:04;;;;;;;24.33;17.53;;;;;;;;;;4955333;28;20207;-75
2020/12/04 03:06:31;;;;;;;25.07;17.67;;;;;;;;;;4955471;28;20546;-74
2020/12/04 03:08:57;;;;;;;24.33;17.33;;;;;;;;;;4955611;28;20287;-75
2020/12/04 03:11:24;;;;;;;24.23;17.00;;;;;;;;;;4953505;28;20184;-74
2020/12/04 03:13:50;;;;;;;23.33;15.60;;;;;;;;;;4953299;28;20315;-75
2020/12/04 03:16:17;;;;;;;26.37;17.63;;;;;;;;;;4963206;28;20643;-74
2020/12/04 03:18:43;;;;;;;24.60;17.47;;;;;;;;;;4953263;28;20854;-75
2020/12/04 03:21:09;;;;;;;27.17;17.23;;;;;;;;;;4954532;28;20185;-75
2020/12/04 03:23:35;;;;;;;25.13;17.60;;;;;;;;;;4955283;28;20670;-74
2020/12/04 03:26:01;;;;;;;30.03;19.27;;;;;;;;;;4955074;28;20583;-75
2020/12/04 03:28:27;;;;;;;27.00;18.20;;;;;;;;;;4953019;29;20215;-75
2020/12/04 03:30:54;;;;;;;31.03;19.93;;;;;;;;;;4954550;28;20449;-75
2020/12/04 03:33:20;;;;;;;29.33;17.73;;;;;;;;;;4955055;29;20173;-75
2020/12/04 03:35:46;;;;;;;27.47;18.50;;;;;;;;;;4953824;28;20690;-75
2020/12/04 03:38:12;;;;;;;26.93;18.00;;;;;;;;;;4955031;28;20216;-73
2020/12/04 03:40:38;;;;;;;29.00;18.63;;;;;;;;;;4955037;28;20241;-75
2020/12/04 03:43:05;;;;;;;25.63;18.13;;;;;;;;;;4955019;28;20197;-75
2020/12/04 03:45:32;;;;;;;26.47;17.30;;;;;;;;;;4954979;28;20588;-72
2020/12/04 03:47:58;;;;;;;28.23;17.97;;;;;;;;;;4953747;29;20201;-75
2020/12/04 03:50:24;;;;;;;27.53;18.07;;;;;;;;;;4955006;28;20177;-74
2020/12/04 03:52:50;;;;;;;25.90;18.17;;;;;;;;;;4953727;29;20204;-74
2020/12/04 03:55:16;;;;;;;25.37;16.47;;;;;;;;;;4955075;28;20628;-74
2020/12/04 03:57:42;;;;;;;25.90;17.50;;;;;;;;;;4954842;28;20169;-74
2020/12/04 04:00:08;;;;;;;24.50;17.07;;;;;;;;;;4953748;29;20181;-74
2020/12/04 04:02:34;;;;;;;26.03;17.53;;;;;;;;;;4955116;28;20465;-74
2020/12/04 04:05:01;;;;;;;30.73;18.80;;;;;;;;;;4953544;28;20208;-73
2020/12/04 04:07:27;;;;;;;23.40;16.83;;;;;;;;;;4954722;28;20544;-75
2020/12/04 04:09:53;;;;;;;24.43;16.80;;;;;;;;;;4954801;28;20177;-73
2020/12/04 04:12:19;;;;;;;24.73;17.27;;;;;;;;;;4954929;28;20212;-75
2020/12/04 04:14:45;;;;;;;27.17;18.20;;;;;;;;;;4954658;28;20209;-74
2020/12/04 04:17:11;;;;;;;23.60;16.87;;;;;;;;;;4954921;28;20201;-74
2020/12/04 04:19:37;;;;;;;23.30;16.10;;;;;;;;;;4954671;28;20648;-74
2020/12/04 04:22:03;;;;;;;28.57;17.53;;;;;;;;;;4953596;29;20181;-74
2020/12/04 04:24:29;;;;;;;26.87;17.67;;;;;;;;;;4956794;28;20256;-75
2020/12/04 04:26:55;;;;;;;26.00;17.40;;;;;;;;;;4958298;28;20595;-74
2020/12/04 04:29:22;;;;;;;25.73;17.17;;;;;;;;;;4958520;28;20201;-74
2020/12/04 04:31:52;;;;;;;22.23;17.00;;;;;;;;;;4958069;28;20545;-74
2020/12/04 04:34:18;;;;;;;28.97;18.50;;;;;;;;;;4958014;28;20201;-75
2020/12/04 04:36:44;;;;;;;26.93;17.70;;;;;;;;;;4957797;28;20668;-75
2020/12/04 04:39:11;;;;;;;24.37;17.77;;;;;;;;;;4958232;28;20193;-74
2020/12/04 04:41:37;;;;;;;26.53;18.13;;;;;;;;;;4957885;28;20196;-74
2020/12/04 04:44:03;;;;;;;26.13;17.93;;;;;;;;;;4956782;28;20211;-74
2020/12/04 04:46:48;;;;;;;28.13;19.43;;;;;;;;;;4945137;29;20320;-74
2020/12/04 04:49:27;;;;;;;28.30;18.30;;;;;;;;;;4947525;29;20197;-73
2020/12/04 04:51:53;;;;;;;24.37;17.23;;;;;;;;;;4957810;29;20200;-73
2020/12/04 04:54:20;;;;;;;29.23;17.97;;;;;;;;;;4956114;28;20702;-73
2020/12/04 04:56:53;;;;;;;29.93;19.03;;;;;;;;;;4957591;28;20209;-74
2020/12/04 04:59:22;;;;;;;28.60;17.03;;;;;;;;;;4957543;28;20185;-74
2020/12/04 05:01:49;;;;;;;28.00;18.47;;;;;;;;;;4955528;28;20321;-73
2020/12/04 05:04:16;;;;;;;25.17;17.70;;;;;;;;;;4955476;29;20208;-74
2020/12/04 05:06:42;;;;;;;25.20;17.23;;;;;;;;;;4955517;28;20185;-74
2020/12/04 05:09:09;;;;;;;23.40;17.30;;;;;;;;;;4954690;29;20292;-74
2020/12/04 05:11:36;;;;;;;58.33;26.87;;;;;;;;;;4951101;29;20204;-74
2020/12/04 05:14:12;;;;;;;41.67;21.43;;;;;;;;;;4955457;29;20196;-73
2020/12/04 05:16:38;;;;;;;77.77;32.10;;;;;;;;;;4944017;29;20181;-73
2020/12/04 05:19:05;;;;;;;49.43;23.30;;;;;;;;;;4957349;28;20552;-74
2020/12/04 05:21:34;;;;;;;35.83;20.67;;;;;;;;;;4957522;29;20193;-74
2020/12/04 05:24:00;;;;;;;33.50;20.07;;;;;;;;;;4957213;28;20656;-74
2020/12/04 05:26:34;;;;;;;37.63;22.37;;;;;;;;;;4957374;28;20193;-74
2020/12/04 05:29:00;;;;;;;49.23;25.30;;;;;;;;;;4951808;29;20280;-74
2020/12/04 05:31:30;;;;;;;32.47;20.40;;;;;;;;;;4953081;29;20247;-75
2020/12/04 05:33:57;;;;;;;55.90;30.20;;;;;;;;;;4956135;29;20656;-73
2020/12/04 05:36:27;;;;;;;29.23;19.93;;;;;;;;;;4938280;29;20185;-74
2020/12/04 05:38:53;;;;;;;31.73;21.33;;;;;;;;;;4956434;28;20173;-74
2020/12/04 05:41:19;;;;;;;27.70;18.70;;;;;;;;;;4955468;28;20234;-75
2020/12/04 05:43:45;;;;;;;26.07;17.73;;;;;;;;;;4936391;29;20194;-74
2020/12/04 05:46:11;;;;;;;24.53;16.97;;;;;;;;;;4987134;23;20663;-77
2020/12/04 05:48:38;;;;;;;24.70;17.47;;;;;;;;;;4972018;28;20214;-78
2020/12/04 05:51:04;;;;;;;26.90;18.73;;;;;;;;;;4976509;28;20207;-79
2020/12/04 05:53:30;;;;;;;27.10;17.80;;;;;;;;;;4977105;28;20231;-79
2020/12/04 05:55:56;;;;;;;27.03;18.27;;;;;;;;;;4966188;28;20200;-78
2020/12/04 05:58:24;;;;;;;29.60;18.97;;;;;;;;;;4958720;28;20602;-79
2020/12/04 06:00:50;;;;;;;29.93;19.57;;;;;;;;;;4958373;28;20192;-79
2020/12/04 06:03:16;;;;;;;30.47;19.10;;;;;;;;;;4959611;28;20212;-79
2020/12/04 06:05:42;;;;;;;29.47;18.77;;;;;;;;;;4958908;28;20204;-79
2020/12/04 06:08:09;;;;;;;27.67;18.53;;;;;;;;;;4959036;28;20201;-78
2020/12/04 06:10:35;;;;;;;27.47;19.40;;;;;;;;;;4959113;28;20637;-78
2020/12/04 06:13:03;;;;;;;28.43;18.37;;;;;;;;;;4959834;28;20260;-79
2020/12/04 06:15:30;;;;;;;29.13;19.27;;;;;;;;;;4958382;28;20233;-79
2020/12/04 06:18:04;;;;;;;28.60;18.70;;;;;;;;;;4960277;28;20607;-79
2020/12/04 06:20:39;;;;;;;26.03;17.70;;;;;;;;;;4957951;28;20724;-79
2020/12/04 06:23:09;;;;;;;29.30;18.93;;;;;;;;;;4957980;28;20276;-79
2020/12/04 06:25:55;;;;;;;27.07;18.27;;;;;;;;;;4956949;28;20224;-78
2020/12/04 06:28:22;;;;;;;27.23;17.80;;;;;;;;;;4958007;28;20201;-79
2020/12/04 06:31:00;;;;;;;26.73;17.83;;;;;;;;;;4958886;28;20188;-79
2020/12/04 06:33:40;;;;;;;24.93;16.97;;;;;;;;;;4959284;28;20189;-78
2020/12/04 06:36:07;;;;;;;31.37;19.13;;;;;;;;;;4958570;28;20201;-79
2020/12/04 06:38:34;;;;;;;28.63;18.37;;;;;;;;;;4958588;28;20258;-78
2020/12/04 06:41:19;;;;;;;31.77;20.07;;;;;;;;;;4958103;28;20181;-79
2020/12/04 06:43:46;;;;;;;31.27;19.90;;;;;;;;;;4958926;28;20177;-79
2020/12/04 06:46:31;;;;;;;22.77;15.57;;;;;;;;;;4958009;28;20216;-79
2020/12/04 06:49:08;;;;;;;25.67;17.23;;;;;;;;;;4958805;28;20227;-79
2020/12/04 06:51:34;;;;;;;23.27;17.30;;;;;;;;;;4958048;28;20184;-79
2020/12/04 06:54:00;;;;;;;25.83;16.93;;;;;;;;;;4957518;28;20268;-79
2020/12/04 06:56:26;;;;;;;23.77;16.63;;;;;;;;;;4957299;28;20197;-79
2020/12/04 06:58:52;;;;;;;26.30;17.10;;;;;;;;;;4957892;28;20276;-79
2020/12/04 07:01:19;;;;;;;24.97;17.53;;;;;;;;;;4957358;28;20187;-79
2020/12/04 07:03:45;;;;;;;23.13;16.33;;;;;;;;;;4957945;28;20284;-78
2020/12/04 07:06:12;;;;;;;22.73;16.63;;;;;;;;;;4957496;28;20201;-79
2020/12/04 07:08:51;;;;;;;23.57;16.37;;;;;;;;;;4957756;28;20224;-79
2020/12/04 07:11:18;;;;;;;26.07;16.90;;;;;;;;;;4958566;28;20196;-79
2020/12/04 07:13:44;;;;;;;24.30;16.57;;;;;;;;;;4957894;28;20240;-78
2020/12/04 07:16:10;;;;;;;25.73;16.87;;;;;;;;;;4957274;28;20618;-79
2020/12/04 07:18:36;;;;;;;27.83;18.37;;;;;;;;;;4957665;28;20189;-78
2020/12/04 07:21:02;;;;;;;23.80;17.37;;;;;;;;;;4956996;28;20185;-79
2020/12/04 07:23:28;;;;;;;26.87;17.83;;;;;;;;;;4957413;28;20644;-79
2020/12/04 07:25:55;;;;;;;26.07;17.83;;;;;;;;;;4958692;28;20224;-79
2020/12/04 07:28:21;;;;;;;26.77;18.20;;;;;;;;;;4941219;29;20205;-78
2020/12/04 07:30:47;;;;;;;23.07;16.40;;;;;;;;;;4957305;28;20180;-78
2020/12/04 07:33:13;;;;;;;23.70;16.60;;;;;;;;;;4957814;28;20188;-79
2020/12/04 07:35:39;;;;;;;25.90;17.60;;;;;;;;;;4958011;28;20296;-78
2020/12/04 07:38:08;;;;;;;29.63;19.07;;;;;;;;;;4957448;28;20626;-79
2020/12/04 07:40:35;;;;;;;27.97;17.67;;;;;;;;;;4958919;28;20648;-77
2020/12/04 07:43:03;;;;;;;25.83;17.70;;;;;;;;;;4958142;29;20184;-79
2020/12/04 07:45:29;;;;;;;30.70;18.60;;;;;;;;;;4957493;28;20224;-79
2020/12/04 07:47:55;;;;;;;22.70;16.37;;;;;;;;;;4956738;28;20204;-78
2020/12/04 07:50:23;;;;;;;25.77;17.67;;;;;;;;;;4957917;28;20184;-78
2020/12/04 07:52:53;;;;;;;27.27;17.47;;;;;;;;;;4956057;28;20181;-79
2020/12/04 07:55:22;;;;;;;24.97;17.43;;;;;;;;;;4956102;28;20206;-77
2020/12/04 07:58:02;;;;;;;25.37;17.40;;;;;;;;;;4956483;28;20188;-78
2020/12/04 08:00:35;;;;;;;28.00;17.40;;;;;;;;;;4960328;28;20208;-78
2020/12/04 08:03:02;;;;;;;27.90;18.43;;;;;;;;;;4960435;28;20183;-78
2020/12/04 08:05:29;;;;;;;29.03;18.83;;;;;;;;;;4960134;28;20262;-78
2020/12/04 08:07:55;;;;;;;29.13;18.20;;;;;;;;;;4959731;28;20187;-79
2020/12/04 08:10:21;;;;;;;27.23;19.40;;;;;;;;;;4959883;28;20263;-79
2020/12/04 08:12:51;;;;;;;27.70;18.87;;;;;;;;;;4959942;28;20180;-79
2020/12/04 08:15:20;;;;;;;29.90;18.57;;;;;;;;;;4959722;28;20197;-79
2020/12/04 08:17:46;;;;;;;30.27;19.13;;;;;;;;;;4959600;28;20181;-78
2020/12/04 08:20:16;;;;;;;29.63;21.03;;;;;;;;;;4960161;28;20185;-78
2020/12/04 08:22:47;;;;;;;30.80;21.10;;;;;;;;;;4960094;28;20652;-78
2020/12/04 08:25:14;;;;;;;30.17;21.63;;;;;;;;;;4960654;28;20343;-78
2020/12/04 08:27:44;;;;;;;28.80;20.97;;;;;;;;;;4960091;28;20271;-78
2020/12/04 08:30:19;;;;;;;32.90;23.50;;;;;;;;;;4959985;28;20206;-79
2020/12/04 08:32:46;;;;;;;36.33;24.57;;;;;;;;;;4960045;28;20185;-78
2020/12/04 08:35:17;;;;;;;35.10;23.63;;;;;;;;;;4960144;28;20673;-79
2020/12/04 08:37:43;;;;;;;32.60;23.37;;;;;;;;;;4969357;28;20633;-78
2020/12/04 08:40:20;;;;;;;37.80;25.53;;;;;;;;;;4973930;28;20188;-79
2020/12/04 08:42:46;;;;;;;39.00;26.17;;;;;;;;;;4966965;29;20281;-78
2020/12/04 08:45:12;;;;;;;39.07;26.63;;;;;;;;;;4977799;28;20213;-79
2020/12/04 08:47:42;;;;;;;47.77;30.03;;;;;;;;;;4978973;28;20181;-79
2020/12/04 08:50:11;;;;;;;41.73;28.13;;;;;;;;;;4979037;28;20232;-79
2020/12/04 08:52:38;;;;;;;45.53;29.57;;;;;;;;;;4978334;28;20252;-79
2020/12/04 08:55:05;;;;;;;44.20;30.93;;;;;;;;;;4976807;28;20197;-79
2020/12/04 08:57:32;;;;;;;50.87;33.60;;;;;;;;;;4972971;28;20256;-78
2020/12/04 09:00:01;;;;;;;52.83;34.83;;;;;;;;;;4960285;28;20193;-79
2020/12/04 09:02:27;;;;;;;59.63;39.50;;;;;;;;;;4958870;28;20209;-79
2020/12/04 09:04:54;;;;;;;62.70;40.97;;;;;;;;;;4960260;28;20209;-79
2020/12/04 09:07:20;;;;;;;59.30;40.90;;;;;;;;;;4959205;28;20648;-78
2020/12/04 09:09:46;;;;;;;60.20;39.67;;;;;;;;;;4959072;28;20239;-78
2020/12/04 09:12:12;;;;;;;60.87;40.67;;;;;;;;;;4959383;28;20196;-79
2020/12/04 09:14:38;;;;;;;56.27;36.00;;;;;;;;;;4960155;28;20177;-79
2020/12/04 09:17:04;;;;;;;46.77;31.63;;;;;;;;;;4958672;29;20235;-79
2020/12/04 09:19:30;;;;;;;61.17;33.43;;;;;;;;;;4960018;28;20270;-79
2020/12/04 09:21:57;;;;;;;46.53;29.67;;;;;;;;;;4960623;28;20195;-79
2020/12/04 09:24:23;;;;;;;45.60;28.10;;;;;;;;;;4960101;28;20661;-79
2020/12/04 09:26:49;;;;;;;38.83;23.53;;;;;;;;;;4958085;28;20216;-79
2020/12/04 09:29:15;;;;;;;46.67;24.97;;;;;;;;;;4960072;28;20704;-79
2020/12/04 09:31:41;;;;;;;32.20;20.33;;;;;;;;;;4959833;28;20181;-79
2020/12/04 09:34:08;;;;;;;63.47;26.23;;;;;;;;;;4960240;28;20681;-79
2020/12/04 09:36:34;;;;;;;30.33;19.07;;;;;;;;;;4960358;28;20240;-79
2020/12/04 09:39:00;;;;;;;28.97;18.43;;;;;;;;;;4958610;28;20182;-79
2020/12/04 09:41:26;;;;;;;31.00;18.30;;;;;;;;;;4960029;28;20216;-79
2020/12/04 09:43:52;;;;;;;27.07;18.03;;;;;;;;;;4959922;28;20554;-79
2020/12/04 09:46:19;;;;;;;28.10;18.70;;;;;;;;;;4959594;28;20228;-78
2020/12/04 09:48:45;;;;;;;28.63;17.63;;;;;;;;;;4959871;28;20197;-79
2020/12/04 09:53:48;;;;;;;26.20;17.70;;;;;;;;;;5169569;23;20299;-77
2020/12/04 09:56:14;;;;;;;25.30;18.13;;;;;;;;;;4975879;28;20165;-77
2020/12/04 09:58:40;;;;;;;25.27;17.30;;;;;;;;;;4976005;28;20179;-76
2020/12/04 10:01:06;;;;;;;27.00;17.87;;;;;;;;;;4975901;28;20169;-77
2020/12/04 10:03:32;;;;;;;27.70;17.53;;;;;;;;;;4961219;28;20206;-78
2020/12/04 10:05:58;;;;;;;28.80;17.80;;;;;;;;;;4938380;29;20186;-77
2020/12/04 10:08:24;;;;;;;29.00;19.03;;;;;;;;;;4951893;29;20239;-78
2020/12/04 10:10:50;;;;;;;26.27;16.83;;;;;;;;;;4956129;29;20177;-77
2020/12/04 10:13:16;;;;;;;22.10;16.20;;;;;;;;;;4956960;28;20204;-77
2020/12/04 10:15:42;;;;;;;27.30;17.77;;;;;;;;;;4955705;29;20200;-77
2020/12/04 10:18:10;;;;;;;28.03;18.47;;;;;;;;;;4956909;29;20189;-76
2020/12/04 10:20:36;;;;;;;26.73;17.83;;;;;;;;;;4955527;29;20252;-76
2020/12/04 10:23:02;;;;;;;26.63;17.43;;;;;;;;;;4955732;28;20210;-76
2020/12/04 10:25:29;;;;;;;28.07;18.20;;;;;;;;;;4961301;28;20711;-76
2020/12/04 10:27:55;;;;;;;23.87;17.47;;;;;;;;;;4960208;29;20182;-76
2020/12/04 10:30:21;;;;;;;25.43;17.63;;;;;;;;;;4960481;28;20212;-76
2020/12/04 10:32:47;;;;;;;25.63;16.40;;;;;;;;;;4955546;28;20276;-76
2020/12/04 10:35:13;;;;;;;27.00;17.93;;;;;;;;;;4955072;29;20640;-77
2020/12/04 10:37:39;;;;;;;26.03;17.23;;;;;;;;;;4954946;29;20659;-76
2020/12/04 10:40:05;;;;;;;28.33;17.70;;;;;;;;;;4954709;29;20184;-76
2020/12/04 10:42:31;;;;;;;29.70;18.73;;;;;;;;;;4956027;28;20205;-76
2020/12/04 10:44:57;;;;;;;29.00;18.97;;;;;;;;;;4956267;28;20181;-76
2020/12/04 10:47:24;;;;;;;28.20;17.77;;;;;;;;;;4956266;28;20189;-76
2020/12/04 10:49:50;;;;;;;31.87;20.10;;;;;;;;;;4946615;28;20197;-77
2020/12/04 10:52:17;;;;;;;66.43;35.20;;;;;;;;;;4951471;28;20201;-76
2020/12/04 10:54:43;;;;;;;32.30;19.83;;;;;;;;;;4956147;29;20203;-76
2020/12/04 10:57:09;;;;;;;41.23;23.50;;;;;;;;;;4956065;28;20232;-77
2020/12/04 10:59:36;;;;;;;28.70;17.83;;;;;;;;;;4955936;29;20217;-78
2020/12/04 11:02:13;;;;;;;24.10;16.47;;;;;;;;;;4932532;29;20660;-77
2020/12/04 11:07:24;;;;;;;29.53;18.00;;;;;;;;;;4956211;29;20216;-78
2020/12/04 11:09:50;;;;;;;87.40;37.90;;;;;;;;;;4955809;29;20204;-77
2020/12/04 11:12:16;;;;;;;37.63;21.60;;;;;;;;;;4954298;28;20208;-76
2020/12/04 11:14:43;;;;;;;28.43;18.60;;;;;;;;;;4955505;29;20543;-75
2020/12/04 11:17:09;;;;;;;40.93;23.77;;;;;;;;;;4954050;29;20535;-75
2020/12/04 11:19:36;;;;;;;28.77;18.13;;;;;;;;;;4954451;29;20181;-75
2020/12/04 11:22:02;;;;;;;28.97;18.33;;;;;;;;;;4954995;28;20268;-76
2020/12/04 11:24:29;;;;;;;49.03;26.73;;;;;;;;;;4955108;29;20188;-75
2020/12/04 11:26:55;;;;;;;47.73;25.10;;;;;;;;;;4955787;28;20250;-74
2020/12/04 11:29:21;;;;;;;38.63;21.63;;;;;;;;;;4954193;29;20224;-75
2020/12/04 11:31:47;;;;;;;48.47;25.70;;;;;;;;;;4955501;28;20565;-74
2020/12/04 11:34:13;;;;;;;59.63;28.53;;;;;;;;;;4953025;28;20205;-76
2020/12/04 11:36:40;;;;;;;44.10;23.47;;;;;;;;;;4955392;28;20261;-75
2020/12/04 11:39:06;;;;;;;43.40;22.73;;;;;;;;;;4955198;29;20214;-75
2020/12/04 11:41:32;;;;;;;34.30;20.13;;;;;;;;;;4955060;28;20267;-75
2020/12/04 11:43:58;;;;;;;45.20;24.23;;;;;;;;;;4954967;28;20710;-76
2020/12/04 11:46:24;;;;;;;26.40;17.57;;;;;;;;;;4953854;29;20193;-76
2020/12/04 11:48:51;;;;;;;29.60;19.13;;;;;;;;;;4955561;28;20284;-75
2020/12/04 11:51:17;;;;;;;58.67;24.03;;;;;;;;;;4953676;29;20180;-76
2020/12/04 11:53:43;;;;;;;48.77;25.43;;;;;;;;;;4953720;28;20287;-77
2020/12/04 11:56:09;;;;;;;112.90;36.27;;;;;;;;;;4955365;28;20185;-76
2020/12/04 11:58:35;;;;;;;52.40;25.30;;;;;;;;;;4955104;29;20639;-76
2020/12/04 12:01:01;;;;;;;32.47;17.93;;;;;;;;;;4955249;28;20213;-77
2020/12/04 12:03:27;;;;;;;30.20;19.93;;;;;;;;;;4954926;28;20239;-76
2020/12/04 12:05:53;;;;;;;25.67;17.33;;;;;;;;;;4954153;29;20189;-76
2020/12/04 12:08:20;;;;;;;24.30;17.10;;;;;;;;;;4954764;28;20205;-76
2020/12/04 12:10:46;;;;;;;28.77;19.07;;;;;;;;;;4955262;28;20173;-76
2020/12/04 12:13:12;;;;;;;26.10;17.30;;;;;;;;;;4955028;28;20228;-75
2020/12/04 12:15:39;;;;;;;23.97;16.10;;;;;;;;;;4955151;28;20185;-75
2020/12/04 12:18:05;;;;;;;23.73;16.03;;;;;;;;;;4953715;29;20186;-75
2020/12/04 12:20:31;;;;;;;23.10;16.50;;;;;;;;;;4954665;28;20193;-76
2020/12/04 12:22:57;;;;;;;24.40;16.80;;;;;;;;;;4954938;28;20201;-76
2020/12/04 12:25:24;;;;;;;25.63;16.70;;;;;;;;;;4954907;28;20185;-76
2020/12/04 12:27:50;;;;;;;26.30;16.83;;;;;;;;;;4954789;28;20193;-77
2020/12/04 12:30:16;;;;;;;27.07;17.33;;;;;;;;;;4954690;28;20237;-75
2020/12/04 12:32:42;;;;;;;33.53;18.90;;;;;;;;;;4953529;28;20205;-75
2020/12/04 12:35:12;;;;;;;33.40;18.50;;;;;;;;;;4954818;28;20188;-75
2020/12/04 12:37:39;;;;;;;25.93;17.50;;;;;;;;;;4954743;28;20175;-76
2020/12/04 12:40:06;;;;;;;26.40;17.47;;;;;;;;;;4953615;29;20188;-77
2020/12/04 12:42:32;;;;;;;31.30;19.20;;;;;;;;;;4954755;28;20205;-76
2020/12/04 12:44:59;;;;;;;53.07;27.57;;;;;;;;;;4956406;28;20182;-77
2020/12/04 12:47:25;;;;;;;47.20;25.50;;;;;;;;;;4958586;29;20675;-77
2020/12/04 12:49:51;;;;;;;31.00;19.70;;;;;;;;;;4956678;28;20256;-78
2020/12/04 12:52:18;;;;;;;26.97;16.27;;;;;;;;;;4956123;28;20194;-75
2020/12/04 12:54:44;;;;;;;27.30;16.20;;;;;;;;;;4952616;28;20199;-73
2020/12/04 12:57:11;;;;;;;27.20;17.97;;;;;;;;;;4957732;28;20181;-74
2020/12/04 12:59:37;;;;;;;24.93;15.60;;;;;;;;;;4953398;28;20201;-72
2020/12/04 13:02:03;;;;;;;28.43;16.57;;;;;;;;;;4955270;28;20325;-73
2020/12/04 13:04:29;;;;;;;20.10;15.80;;;;;;;;;;4951392;28;20214;-74
2020/12/04 13:06:55;;;;;;;27.40;16.47;;;;;;;;;;4955817;28;20184;-73
2020/12/04 13:09:22;;;;;;;23.53;16.47;;;;;;;;;;4955746;28;20237;-74
2020/12/04 13:11:49;;;;;;;26.17;16.30;;;;;;;;;;4954884;29;20196;-72
2020/12/04 13:14:15;;;;;;;28.77;16.90;;;;;;;;;;4954070;28;20205;-74
2020/12/04 13:16:42;;;;;;;31.60;17.93;;;;;;;;;;4954901;29;20276;-74
2020/12/04 13:19:09;;;;;;;28.57;17.87;;;;;;;;;;4955869;28;20631;-73
2020/12/04 13:24:21;;;;;;;31.80;16.07;;;;;;;;;;4951780;29;20195;-74
2020/12/04 13:26:47;;;;;;;29.37;17.40;;;;;;;;;;4955672;29;20660;-73
2020/12/04 13:29:13;;;;;;;30.17;16.47;;;;;;;;;;4953639;28;20693;-72
2020/12/04 13:31:39;;;;;;;28.87;17.00;;;;;;;;;;4955081;28;20264;-74
2020/12/04 13:34:05;;;;;;;25.00;16.27;;;;;;;;;;4954533;28;20197;-73
2020/12/04 13:36:31;;;;;;;26.60;16.30;;;;;;;;;;4955753;28;20190;-73
2020/12/04 13:38:58;;;;;;;31.40;17.40;;;;;;;;;;4951254;29;20185;-73
2020/12/04 13:41:24;;;;;;;21.53;15.57;;;;;;;;;;4954367;29;20194;-73
2020/12/04 13:43:50;;;;;;;25.53;17.37;;;;;;;;;;4955282;28;20231;-74
2020/12/04 13:46:16;;;;;;;24.27;16.90;;;;;;;;;;4950307;28;20649;-72
2020/12/04 13:48:43;;;;;;;25.27;17.37;;;;;;;;;;4955361;28;20214;-74
2020/12/04 13:51:09;;;;;;;23.63;17.47;;;;;;;;;;4955098;28;20205;-74
2020/12/04 13:53:36;;;;;;;28.30;17.17;;;;;;;;;;4955307;28;20208;-74
2020/12/04 13:56:02;;;;;;;30.30;17.30;;;;;;;;;;4937391;29;20221;-74
2020/12/04 13:58:28;;;;;;;26.00;18.03;;;;;;;;;;4955865;28;20260;-74
2020/12/04 14:00:55;;;;;;;26.43;17.53;;;;;;;;;;4954643;28;20618;-75
2020/12/04 14:03:21;;;;;;;23.57;16.47;;;;;;;;;;4953669;28;20197;-73
2020/12/04 14:05:52;;;;;;;27.27;16.27;;;;;;;;;;4955095;29;20644;-73
2020/12/04 14:08:18;;;;;;;24.47;15.23;;;;;;;;;;4955209;28;20206;-74
2020/12/04 14:10:44;;;;;;;33.53;15.83;;;;;;;;;;4953169;28;20261;-73
2020/12/04 14:13:10;;;;;;;24.87;16.17;;;;;;;;;;4955270;28;20213;-74
2020/12/04 14:15:36;;;;;;;24.23;15.50;;;;;;;;;;4953312;28;20190;-72
2020/12/04 14:18:03;;;;;;;18.57;14.30;;;;;;;;;;4951485;28;20837;-73
2020/12/04 14:20:29;;;;;;;24.87;16.40;;;;;;;;;;4954121;28;20229;-73
2020/12/04 14:22:55;;;;;;;24.70;16.67;;;;;;;;;;4955187;28;20201;-73